createdAt,value
2018-05-18T00:00:26.313Z,1013.90
2018-05-18T00:01:26.294Z,1013.92
2018-05-18T00:02:27.218Z,1013.91
2018-05-18T00:03:26.276Z,1013.95
2018-05-18T00:04:26.729Z,1013.92
2018-05-18T00:05:26.252Z,1013.92
2018-05-18T00:06:26.145Z,1013.89
2018-05-18T00:07:26.715Z,1013.92
2018-05-18T00:08:26.092Z,1013.95
2018-05-18T00:09:26.113Z,1013.95
2018-05-18T00:10:26.717Z,1013.93
2018-05-18T00:11:26.006Z,1013.93
2018-05-18T00:12:25.976Z,1013.92
2018-05-18T00:13:26.743Z,1013.94
2018-05-18T00:14:25.982Z,1013.93
2018-05-18T00:15:25.897Z,1013.94
2018-05-18T00:16:26.719Z,1013.97
2018-05-18T00:17:25.841Z,1013.93
2018-05-18T00:18:25.812Z,1013.98
2018-05-18T00:19:26.288Z,1014.02
2018-05-18T00:20:25.757Z,1013.98
2018-05-18T00:21:25.733Z,1014.00
2018-05-18T00:22:26.222Z,1013.97
2018-05-18T00:23:25.675Z,1013.98
2018-05-18T00:24:25.701Z,1013.98
2018-05-18T00:25:25.635Z,1014.01
2018-05-18T00:26:25.596Z,1014.02
2018-05-18T00:27:25.563Z,1013.99
2018-05-18T00:28:25.529Z,1013.96
2018-05-18T00:29:25.771Z,1013.98
2018-05-18T00:30:25.475Z,1013.99
2018-05-18T00:31:25.491Z,1013.96
2018-05-18T00:32:25.432Z,1013.99
2018-05-18T00:33:25.390Z,1013.99
2018-05-18T00:34:26.217Z,1014.00
2018-05-18T00:35:25.448Z,1014.03
2018-05-18T00:36:25.312Z,1014.01
2018-05-18T00:37:25.275Z,1014.06
2018-05-18T00:38:25.317Z,1014.07
2018-05-18T00:39:25.225Z,1014.07
2018-05-18T00:40:25.194Z,1014.06
2018-05-18T00:41:25.169Z,1014.09
2018-05-18T00:42:25.189Z,1014.09
2018-05-18T00:43:25.111Z,1014.08
2018-05-18T00:44:25.082Z,1014.09
2018-05-18T00:45:25.060Z,1014.10
2018-05-18T00:46:25.724Z,1014.08
2018-05-18T00:47:25.042Z,1014.08
2018-05-18T00:48:24.978Z,1014.13
2018-05-18T00:49:24.993Z,1014.09
2018-05-18T00:50:25.756Z,1014.08
2018-05-18T00:51:24.900Z,1014.09
2018-05-18T00:52:25.721Z,1014.05
2018-05-18T00:53:24.829Z,1014.07
2018-05-18T00:54:24.874Z,1014.06
2018-05-18T00:55:24.773Z,1014.04
2018-05-18T00:56:24.748Z,1014.05
2018-05-18T00:57:24.719Z,1014.09
2018-05-18T00:58:24.697Z,1014.05
2018-05-18T00:59:24.710Z,1014.02
2018-05-18T01:00:24.637Z,1014.06
2018-05-18T01:01:24.610Z,1014.07
2018-05-18T01:02:24.580Z,1014.10
2018-05-18T01:03:24.593Z,1014.12
2018-05-18T01:04:24.534Z,1014.12
2018-05-18T01:05:24.543Z,1014.13
2018-05-18T01:06:24.464Z,1014.15
2018-05-18T01:07:24.444Z,1014.12
2018-05-18T01:08:24.453Z,1014.14
2018-05-18T01:09:24.430Z,1014.10
2018-05-18T01:10:24.358Z,1014.12
2018-05-18T01:11:24.322Z,1014.14
2018-05-18T01:12:24.298Z,1014.12
2018-05-18T01:13:24.783Z,1014.09
2018-05-18T01:14:24.240Z,1014.08
2018-05-18T01:15:24.214Z,1014.09
2018-05-18T01:16:24.231Z,1014.09
2018-05-18T01:17:24.729Z,1014.05
2018-05-18T01:18:24.130Z,1014.08
2018-05-18T01:19:24.108Z,1014.08
2018-05-18T01:20:24.075Z,1014.12
2018-05-18T01:21:24.311Z,1014.11
2018-05-18T01:22:24.010Z,1014.14
2018-05-18T01:23:23.991Z,1014.18
2018-05-18T01:24:24.002Z,1014.21
2018-05-18T01:25:23.927Z,1014.19
2018-05-18T01:26:23.949Z,1014.23
2018-05-18T01:27:24.730Z,1014.21
2018-05-18T01:28:23.897Z,1014.17
2018-05-18T01:29:23.823Z,1014.15
2018-05-18T01:30:24.283Z,1014.19
2018-05-18T01:31:23.766Z,1014.18
2018-05-18T01:32:23.733Z,1014.15
2018-05-18T01:33:24.229Z,1014.17
2018-05-18T01:34:23.683Z,1014.18
2018-05-18T01:35:23.693Z,1014.18
2018-05-18T01:36:24.229Z,1014.14
2018-05-18T01:37:23.599Z,1014.12
2018-05-18T01:38:23.611Z,1014.16
2018-05-18T01:39:24.229Z,1014.10
2018-05-18T01:40:23.581Z,1014.08
2018-05-18T01:41:23.526Z,1014.05
2018-05-18T01:42:23.454Z,1014.09
2018-05-18T01:43:23.426Z,1014.07
2018-05-18T01:44:24.233Z,1014.09
2018-05-18T01:45:23.364Z,1014.11
2018-05-18T01:46:23.385Z,1014.06
2018-05-18T01:47:23.304Z,1014.09
2018-05-18T01:48:23.283Z,1014.04
2018-05-18T01:49:23.295Z,1014.04
2018-05-18T01:50:23.730Z,1014.09
2018-05-18T01:51:23.244Z,1014.09
2018-05-18T01:52:23.194Z,1014.11
2018-05-18T01:53:23.136Z,1014.09
2018-05-18T01:54:23.121Z,1014.07
2018-05-18T01:55:23.294Z,1014.08
2018-05-18T01:56:23.053Z,1014.08
2018-05-18T01:57:23.020Z,1013.99
2018-05-18T01:58:23.735Z,1014.04
2018-05-18T01:59:22.963Z,1014.00
2018-05-18T02:00:22.993Z,1014.05
2018-05-18T02:01:23.734Z,1013.98
2018-05-18T02:02:22.889Z,1014.03
2018-05-18T02:03:22.851Z,1014.04
2018-05-18T02:04:22.823Z,1014.06
2018-05-18T02:05:22.840Z,1014.06
2018-05-18T02:06:23.288Z,1014.14
2018-05-18T02:07:22.741Z,1014.12
2018-05-18T02:08:22.717Z,1014.14
2018-05-18T02:09:22.732Z,1014.16
2018-05-18T02:10:23.238Z,1014.19
2018-05-18T02:11:22.676Z,1014.20
2018-05-18T02:12:23.233Z,1014.19
2018-05-18T02:13:22.567Z,1014.19
2018-05-18T02:14:22.585Z,1014.22
2018-05-18T02:15:22.794Z,1014.23
2018-05-18T02:16:22.484Z,1014.24
2018-05-18T02:17:22.468Z,1014.21
2018-05-18T02:18:22.428Z,1014.21
2018-05-18T02:19:22.438Z,1014.19
2018-05-18T02:20:22.415Z,1014.20
2018-05-18T02:21:22.343Z,1014.20
2018-05-18T02:22:22.886Z,1014.20
2018-05-18T02:23:22.282Z,1014.23
2018-05-18T02:24:22.259Z,1014.22
2018-05-18T02:25:22.287Z,1014.25
2018-05-18T02:26:22.199Z,1014.28
2018-05-18T02:27:22.177Z,1014.26
2018-05-18T02:28:22.741Z,1014.27
2018-05-18T02:29:22.114Z,1014.30
2018-05-18T02:30:22.144Z,1014.26
2018-05-18T02:31:22.733Z,1014.28
2018-05-18T02:32:22.081Z,1014.28
2018-05-18T02:33:21.999Z,1014.31
2018-05-18T02:34:22.742Z,1014.30
2018-05-18T02:35:22.002Z,1014.29
2018-05-18T02:36:22.749Z,1014.33
2018-05-18T02:37:21.895Z,1014.33
2018-05-18T02:38:21.901Z,1014.28
2018-05-18T02:39:22.751Z,1014.31
2018-05-18T02:40:21.861Z,1014.28
2018-05-18T02:41:21.817Z,1014.30
2018-05-18T02:42:21.800Z,1014.22
2018-05-18T02:43:21.722Z,1014.24
2018-05-18T02:44:21.694Z,1014.25
2018-05-18T02:45:22.247Z,1014.24
2018-05-18T02:46:21.681Z,1014.31
2018-05-18T02:47:21.741Z,1014.26
2018-05-18T02:48:22.239Z,1014.27
2018-05-18T02:49:21.557Z,1014.23
2018-05-18T02:50:21.525Z,1014.25
2018-05-18T02:51:22.241Z,1014.24
2018-05-18T02:52:21.539Z,1014.21
2018-05-18T02:53:22.248Z,1014.27
2018-05-18T02:54:21.409Z,1014.25
2018-05-18T02:55:22.243Z,1014.26
2018-05-18T02:56:21.353Z,1014.25
2018-05-18T02:57:21.381Z,1014.27
2018-05-18T02:58:22.253Z,1014.27
2018-05-18T02:59:21.272Z,1014.26
2018-05-18T03:00:21.247Z,1014.30
2018-05-18T03:01:21.752Z,1014.28
2018-05-18T03:02:21.244Z,1014.31
2018-05-18T03:03:21.168Z,1014.37
2018-05-18T03:04:21.747Z,1014.38
2018-05-18T03:05:21.104Z,1014.38
2018-05-18T03:06:21.072Z,1014.37
2018-05-18T03:07:21.094Z,1014.38
2018-05-18T03:08:21.021Z,1014.39
2018-05-18T03:09:21.042Z,1014.40
2018-05-18T03:10:20.959Z,1014.41
2018-05-18T03:11:20.931Z,1014.42
2018-05-18T03:12:20.903Z,1014.45
2018-05-18T03:13:21.741Z,1014.51
2018-05-18T03:14:20.894Z,1014.49
2018-05-18T03:15:20.820Z,1014.49
2018-05-18T03:16:20.798Z,1014.50
2018-05-18T03:17:21.746Z,1014.50
2018-05-18T03:18:20.795Z,1014.53
2018-05-18T03:19:20.706Z,1014.57
2018-05-18T03:20:21.254Z,1014.60
2018-05-18T03:21:20.652Z,1014.58
2018-05-18T03:22:20.627Z,1014.61
2018-05-18T03:23:20.676Z,1014.59
2018-05-18T03:24:20.567Z,1014.63
2018-05-18T03:25:20.538Z,1014.60
2018-05-18T03:26:20.511Z,1014.61
2018-05-18T03:27:20.487Z,1014.55
2018-05-18T03:28:20.510Z,1014.59
2018-05-18T03:29:20.518Z,1014.56
2018-05-18T03:30:21.241Z,1014.59
2018-05-18T03:31:20.376Z,1014.57
2018-05-18T03:32:20.346Z,1014.57
2018-05-18T03:33:20.800Z,1014.59
2018-05-18T03:34:20.289Z,1014.64
2018-05-18T03:35:20.261Z,1014.62
2018-05-18T03:36:20.238Z,1014.66
2018-05-18T03:37:20.748Z,1014.61
2018-05-18T03:38:20.224Z,1014.62
2018-05-18T03:39:20.150Z,1014.59
2018-05-18T03:40:20.120Z,1014.60
2018-05-18T03:41:20.411Z,1014.60
2018-05-18T03:42:20.060Z,1014.60
2018-05-18T03:43:20.042Z,1014.57
2018-05-18T03:44:20.013Z,1014.58
2018-05-18T03:45:19.980Z,1014.60
2018-05-18T03:46:20.316Z,1014.57
2018-05-18T03:47:19.925Z,1014.58
2018-05-18T03:48:19.900Z,1014.56
2018-05-18T03:49:20.651Z,1014.55
2018-05-18T03:50:19.845Z,1014.51
2018-05-18T03:51:19.876Z,1014.55
2018-05-18T03:52:20.744Z,1014.60
2018-05-18T03:53:19.764Z,1014.61
2018-05-18T03:54:19.735Z,1014.62
2018-05-18T03:55:19.721Z,1014.60
2018-05-18T03:56:19.803Z,1014.64
2018-05-18T03:57:19.648Z,1014.67
2018-05-18T03:58:19.674Z,1014.67
2018-05-18T03:59:20.252Z,1014.68
2018-05-18T04:00:19.570Z,1014.68
2018-05-18T04:01:19.552Z,1014.73
2018-05-18T04:02:19.814Z,1014.71
2018-05-18T04:03:19.479Z,1014.70
2018-05-18T04:04:19.453Z,1014.72
2018-05-18T04:05:20.251Z,1014.75
2018-05-18T04:06:19.403Z,1014.76
2018-05-18T04:07:19.429Z,1014.75
2018-05-18T04:08:19.341Z,1014.70
2018-05-18T04:09:19.316Z,1014.70
2018-05-18T04:10:20.308Z,1014.76
2018-05-18T04:11:19.258Z,1014.73
2018-05-18T04:12:19.276Z,1014.70
2018-05-18T04:13:19.213Z,1014.81
2018-05-18T04:14:19.182Z,1014.77
2018-05-18T04:15:19.192Z,1014.81
2018-05-18T04:16:19.129Z,1014.81
2018-05-18T04:17:19.098Z,1014.82
2018-05-18T04:18:19.080Z,1014.83
2018-05-18T04:19:19.310Z,1014.83
2018-05-18T04:20:19.016Z,1014.87
2018-05-18T04:21:18.988Z,1014.86
2018-05-18T04:22:19.310Z,1014.85
2018-05-18T04:23:18.943Z,1014.83
2018-05-18T04:24:18.962Z,1014.84
2018-05-18T04:25:18.888Z,1014.84
2018-05-18T04:26:19.757Z,1014.83
2018-05-18T04:27:18.829Z,1014.81
2018-05-18T04:28:18.799Z,1014.87
2018-05-18T04:29:19.385Z,1014.90
2018-05-18T04:30:18.833Z,1014.90
2018-05-18T04:31:18.724Z,1014.88
2018-05-18T04:32:18.695Z,1014.88
2018-05-18T04:33:18.662Z,1014.89
2018-05-18T04:34:18.695Z,1014.90
2018-05-18T04:35:18.609Z,1014.88
2018-05-18T04:36:18.640Z,1014.86
2018-05-18T04:37:18.602Z,1014.91
2018-05-18T04:38:18.528Z,1014.88
2018-05-18T04:39:19.276Z,1014.95
2018-05-18T04:40:18.472Z,1014.92
2018-05-18T04:41:18.499Z,1014.90
2018-05-18T04:42:18.417Z,1014.97
2018-05-18T04:43:18.407Z,1014.91
2018-05-18T04:44:18.368Z,1014.89
2018-05-18T04:45:18.334Z,1014.89
2018-05-18T04:46:18.837Z,1014.87
2018-05-18T04:47:18.300Z,1014.90
2018-05-18T04:48:18.252Z,1014.89
2018-05-18T04:49:18.756Z,1014.89
2018-05-18T04:50:18.203Z,1014.86
2018-05-18T04:51:18.221Z,1014.91
2018-05-18T04:52:18.767Z,1014.91
2018-05-18T04:53:18.122Z,1014.91
2018-05-18T04:54:18.759Z,1014.93
2018-05-18T04:55:18.074Z,1014.93
2018-05-18T04:56:18.086Z,1014.93
2018-05-18T04:57:18.019Z,1014.99
2018-05-18T04:58:18.762Z,1014.96
2018-05-18T04:59:17.962Z,1015.06
2018-05-18T05:00:18.777Z,1014.95
2018-05-18T05:01:17.964Z,1014.99
2018-05-18T05:02:17.883Z,1014.98
2018-05-18T05:03:18.760Z,1014.97
2018-05-18T05:04:17.836Z,1014.97
2018-05-18T05:05:17.797Z,1014.98
2018-05-18T05:06:18.314Z,1014.98
2018-05-18T05:07:17.744Z,1014.99
2018-05-18T05:08:17.718Z,1014.98
2018-05-18T05:09:18.269Z,1014.93
2018-05-18T05:10:17.745Z,1014.97
2018-05-18T05:11:17.640Z,1015.00
2018-05-18T05:12:17.613Z,1015.03
2018-05-18T05:13:17.587Z,1015.05
2018-05-18T05:14:17.557Z,1015.08
2018-05-18T05:15:17.817Z,1015.08
2018-05-18T05:16:17.509Z,1015.16
2018-05-18T05:17:17.478Z,1015.12
2018-05-18T05:18:17.501Z,1015.13
2018-05-18T05:19:17.430Z,1015.14
2018-05-18T05:20:17.398Z,1015.12
2018-05-18T05:21:18.264Z,1015.18
2018-05-18T05:22:17.349Z,1015.18
2018-05-18T05:23:17.372Z,1015.24
2018-05-18T05:24:18.269Z,1015.24
2018-05-18T05:25:17.271Z,1015.21
2018-05-18T05:26:17.766Z,1015.17
2018-05-18T05:27:17.216Z,1015.18
2018-05-18T05:28:17.236Z,1015.16
2018-05-18T05:29:17.224Z,1015.16
2018-05-18T05:30:17.140Z,1015.16
2018-05-18T05:31:17.767Z,1015.18
2018-05-18T05:32:17.084Z,1015.20
2018-05-18T05:33:17.057Z,1015.22
2018-05-18T05:34:17.320Z,1015.24
2018-05-18T05:35:16.999Z,1015.22
2018-05-18T05:36:17.334Z,1015.24
2018-05-18T05:37:16.957Z,1015.28
2018-05-18T05:38:16.978Z,1015.25
2018-05-18T05:39:16.894Z,1015.24
2018-05-18T05:40:17.763Z,1015.30
2018-05-18T05:41:16.848Z,1015.31
2018-05-18T05:42:16.814Z,1015.34
2018-05-18T05:43:16.848Z,1015.36
2018-05-18T05:44:17.264Z,1015.37
2018-05-18T05:45:16.736Z,1015.40
2018-05-18T05:46:16.715Z,1015.44
2018-05-18T05:47:16.689Z,1015.44
2018-05-18T05:48:16.700Z,1015.47
2018-05-18T05:49:16.693Z,1015.38
2018-05-18T05:50:16.609Z,1015.51
2018-05-18T05:51:16.583Z,1015.47
2018-05-18T05:52:16.554Z,1015.46
2018-05-18T05:53:16.529Z,1015.50
2018-05-18T05:54:16.565Z,1015.43
2018-05-18T05:55:16.535Z,1015.45
2018-05-18T05:56:16.453Z,1015.43
2018-05-18T05:57:16.423Z,1015.42
2018-05-18T05:58:16.400Z,1015.43
2018-05-18T05:59:17.269Z,1015.49
2018-05-18T06:00:16.507Z,1015.46
2018-05-18T06:01:16.324Z,1015.48
2018-05-18T06:02:16.297Z,1015.51
2018-05-18T06:03:16.770Z,1015.52
2018-05-18T06:04:16.243Z,1015.52
2018-05-18T06:05:16.326Z,1015.50
2018-05-18T06:06:16.791Z,1015.51
2018-05-18T06:07:16.234Z,1015.53
2018-05-18T06:08:16.139Z,1015.52
2018-05-18T06:09:16.770Z,1015.51
2018-05-18T06:10:16.088Z,1015.53
2018-05-18T06:11:16.065Z,1015.57
2018-05-18T06:12:16.098Z,1015.55
2018-05-18T06:13:16.055Z,1015.58
2018-05-18T06:14:15.986Z,1015.56
2018-05-18T06:15:15.961Z,1015.57
2018-05-18T06:16:15.932Z,1015.65
2018-05-18T06:17:15.947Z,1015.62
2018-05-18T06:18:15.936Z,1015.60
2018-05-18T06:19:15.859Z,1015.65
2018-05-18T06:20:16.771Z,1015.58
2018-05-18T06:21:15.805Z,1015.70
2018-05-18T06:22:15.775Z,1015.65
2018-05-18T06:23:15.837Z,1015.66
2018-05-18T06:24:15.730Z,1015.63
2018-05-18T06:25:15.701Z,1015.69
2018-05-18T06:26:15.676Z,1015.63
2018-05-18T06:27:16.272Z,1015.69
2018-05-18T06:28:15.681Z,1015.65
2018-05-18T06:29:15.600Z,1015.62
2018-05-18T06:30:15.829Z,1015.65
2018-05-18T06:31:15.543Z,1015.63
2018-05-18T06:32:16.270Z,1015.61
2018-05-18T06:33:15.492Z,1015.66
2018-05-18T06:34:15.478Z,1015.67
2018-05-18T06:35:15.654Z,1015.65
2018-05-18T06:36:15.452Z,1015.70
2018-05-18T06:37:15.398Z,1015.73
2018-05-18T06:38:16.278Z,1015.66
2018-05-18T06:39:15.340Z,1015.63
2018-05-18T06:40:15.370Z,1015.66
2018-05-18T06:41:15.331Z,1015.71
2018-05-18T06:42:15.789Z,1015.68
2018-05-18T06:43:15.240Z,1015.68
2018-05-18T06:44:15.301Z,1015.70
2018-05-18T06:45:15.246Z,1015.75
2018-05-18T06:46:15.339Z,1015.77
2018-05-18T06:47:15.141Z,1015.77
2018-05-18T06:48:15.120Z,1015.78
2018-05-18T06:49:15.094Z,1015.80
2018-05-18T06:50:15.072Z,1015.81
2018-05-18T06:51:15.104Z,1015.79
2018-05-18T06:52:15.011Z,1015.82
2018-05-18T06:53:14.986Z,1015.81
2018-05-18T06:54:14.965Z,1015.80
2018-05-18T06:55:14.944Z,1015.84
2018-05-18T06:56:14.960Z,1015.83
2018-05-18T06:57:14.888Z,1015.84
2018-05-18T06:58:14.861Z,1015.87
2018-05-18T06:59:14.840Z,1015.87
2018-05-18T07:00:14.856Z,1015.84
2018-05-18T07:01:14.836Z,1015.97
2018-05-18T07:02:14.760Z,1015.81
2018-05-18T07:03:14.780Z,1015.83
2018-05-18T07:04:14.752Z,1015.86
2018-05-18T07:05:14.687Z,1015.86
2018-05-18T07:06:14.662Z,1015.81
2018-05-18T07:07:14.701Z,1015.85
2018-05-18T07:08:14.613Z,1015.76
2018-05-18T07:09:14.839Z,1015.78
2018-05-18T07:10:14.608Z,1015.81
2018-05-18T07:11:14.555Z,1015.83
2018-05-18T07:12:14.531Z,1015.84
2018-05-18T07:13:14.496Z,1015.85
2018-05-18T07:14:14.462Z,1015.86
2018-05-18T07:15:14.478Z,1015.84
2018-05-18T07:16:14.415Z,1015.88
2018-05-18T07:17:14.401Z,1015.89
2018-05-18T07:18:14.413Z,1015.87
2018-05-18T07:19:14.335Z,1015.88
2018-05-18T07:20:14.310Z,1015.88
2018-05-18T07:21:14.332Z,1015.92
2018-05-18T07:22:14.267Z,1015.91
2018-05-18T07:23:14.285Z,1015.89
2018-05-18T07:24:14.260Z,1015.93
2018-05-18T07:25:14.194Z,1015.89
2018-05-18T07:26:14.164Z,1015.93
2018-05-18T07:27:14.203Z,1015.91
2018-05-18T07:28:14.114Z,1015.93
2018-05-18T07:29:14.092Z,1015.91
2018-05-18T07:30:14.069Z,1015.92
2018-05-18T07:31:14.041Z,1015.92
2018-05-18T07:32:14.071Z,1015.91
2018-05-18T07:33:14.005Z,1015.91
2018-05-18T07:34:13.968Z,1015.93
2018-05-18T07:35:13.943Z,1015.93
2018-05-18T07:36:13.941Z,1015.94
2018-05-18T07:37:13.966Z,1015.96
2018-05-18T07:38:13.865Z,1015.99
2018-05-18T07:39:13.844Z,1015.99
2018-05-18T07:40:13.822Z,1016.00
2018-05-18T07:41:13.789Z,1015.97
2018-05-18T07:42:13.828Z,1016.02
2018-05-18T07:43:13.748Z,1016.01
2018-05-18T07:44:13.719Z,1016.00
2018-05-18T07:45:13.758Z,1016.03
2018-05-18T07:46:13.673Z,1016.07
2018-05-18T07:47:13.700Z,1016.07
2018-05-18T07:48:13.620Z,1016.06
2018-05-18T07:49:13.596Z,1016.07
2018-05-18T07:50:13.654Z,1016.11
2018-05-18T07:51:13.557Z,1016.07
2018-05-18T07:52:13.601Z,1016.05
2018-05-18T07:53:13.568Z,1016.06
2018-05-18T07:54:13.475Z,1016.03
2018-05-18T07:55:13.448Z,1016.04
2018-05-18T07:56:13.514Z,1016.02
2018-05-18T07:57:13.404Z,1016.01
2018-05-18T07:58:13.446Z,1015.98
2018-05-18T07:59:13.353Z,1016.02
2018-05-18T08:00:13.330Z,1016.03
2018-05-18T08:01:13.307Z,1016.06
2018-05-18T08:02:13.288Z,1016.02
2018-05-18T08:03:13.329Z,1016.05
2018-05-18T08:04:13.235Z,1016.05
2018-05-18T08:05:13.211Z,1016.08
2018-05-18T08:06:13.194Z,1016.09
2018-05-18T08:07:13.239Z,1016.07
2018-05-18T08:08:13.194Z,1016.10
2018-05-18T08:09:13.200Z,1016.10
2018-05-18T08:10:13.093Z,1016.11
2018-05-18T08:11:13.062Z,1016.06
2018-05-18T08:12:13.039Z,1016.10
2018-05-18T08:13:13.061Z,1016.15
2018-05-18T08:14:13.037Z,1016.15
2018-05-18T08:15:13.028Z,1016.11
2018-05-18T08:16:12.944Z,1016.17
2018-05-18T08:17:12.924Z,1016.13
2018-05-18T08:18:12.942Z,1016.20
2018-05-18T08:19:13.371Z,1016.23
2018-05-18T08:20:12.851Z,1016.12
2018-05-18T08:21:12.825Z,1016.15
2018-05-18T08:22:12.802Z,1016.09
2018-05-18T08:23:12.776Z,1016.14
2018-05-18T08:24:12.790Z,1016.16
2018-05-18T08:25:12.775Z,1016.10
2018-05-18T08:26:12.769Z,1016.13
2018-05-18T08:27:12.780Z,1016.14
2018-05-18T08:28:12.671Z,1016.10
2018-05-18T08:29:13.299Z,1016.13
2018-05-18T08:30:12.617Z,1016.10
2018-05-18T08:31:12.658Z,1016.10
2018-05-18T08:32:12.565Z,1016.10
2018-05-18T08:33:12.556Z,1016.15
2018-05-18T08:34:12.523Z,1016.11
2018-05-18T08:35:12.546Z,1016.16
2018-05-18T08:36:12.477Z,1016.18
2018-05-18T08:37:12.505Z,1016.14
2018-05-18T08:38:12.447Z,1016.19
2018-05-18T08:39:12.406Z,1016.31
2018-05-18T08:40:12.379Z,1016.23
2018-05-18T08:41:12.361Z,1016.27
2018-05-18T08:42:12.374Z,1016.27
2018-05-18T08:43:12.317Z,1016.30
2018-05-18T08:44:12.289Z,1016.27
2018-05-18T08:45:12.270Z,1016.29
2018-05-18T08:46:12.294Z,1016.28
2018-05-18T08:47:12.223Z,1016.28
2018-05-18T08:48:12.199Z,1016.29
2018-05-18T08:49:12.202Z,1016.30
2018-05-18T08:50:12.712Z,1016.32
2018-05-18T08:51:12.175Z,1016.35
2018-05-18T08:52:12.105Z,1016.36
2018-05-18T08:53:12.133Z,1016.30
2018-05-18T08:54:12.058Z,1016.30
2018-05-18T08:55:12.039Z,1016.31
2018-05-18T08:56:12.019Z,1016.25
2018-05-18T08:57:12.046Z,1016.25
2018-05-18T08:58:12.014Z,1016.26
2018-05-18T08:59:11.951Z,1016.31
2018-05-18T09:00:11.930Z,1016.30
2018-05-18T09:01:11.930Z,1016.31
2018-05-18T09:02:11.944Z,1016.28
2018-05-18T09:03:11.959Z,1016.36
2018-05-18T09:04:11.856Z,1016.30
2018-05-18T09:05:11.814Z,1016.28
2018-05-18T09:06:11.805Z,1016.32
2018-05-18T09:07:11.827Z,1016.30
2018-05-18T09:08:11.792Z,1016.31
2018-05-18T09:09:11.733Z,1016.29
2018-05-18T09:10:11.704Z,1016.30
2018-05-18T09:11:11.685Z,1016.30
2018-05-18T09:12:11.712Z,1016.36
2018-05-18T09:13:11.654Z,1016.34
2018-05-18T09:14:11.618Z,1016.35
2018-05-18T09:15:11.635Z,1016.38
2018-05-18T09:16:11.580Z,1016.43
2018-05-18T09:17:11.596Z,1016.41
2018-05-18T09:18:11.524Z,1016.43
2018-05-18T09:19:11.508Z,1016.46
2018-05-18T09:20:11.486Z,1016.46
2018-05-18T09:21:11.466Z,1016.47
2018-05-18T09:22:11.501Z,1016.47
2018-05-18T09:23:12.309Z,1016.47
2018-05-18T09:24:11.412Z,1016.48
2018-05-18T09:25:11.379Z,1016.46
2018-05-18T09:26:11.354Z,1016.49
2018-05-18T09:27:11.381Z,1016.51
2018-05-18T09:28:13.821Z,1016.49
2018-05-18T09:29:11.296Z,1016.54
2018-05-18T09:30:11.271Z,1016.51
2018-05-18T09:31:11.313Z,1016.60
2018-05-18T09:32:11.237Z,1016.59
2018-05-18T09:33:11.204Z,1016.58
2018-05-18T09:34:11.196Z,1016.54
2018-05-18T09:35:11.819Z,1016.64
2018-05-18T09:36:11.203Z,1016.62
2018-05-18T09:37:11.114Z,1016.63
2018-05-18T09:38:11.111Z,1016.62
2018-05-18T09:39:11.076Z,1016.65
2018-05-18T09:40:11.827Z,1016.66
2018-05-18T09:41:11.075Z,1016.66
2018-05-18T09:42:11.013Z,1016.69
2018-05-18T09:43:11.024Z,1016.67
2018-05-18T09:44:10.971Z,1016.67
2018-05-18T09:45:10.957Z,1016.69
2018-05-18T09:46:10.969Z,1016.68
2018-05-18T09:47:11.818Z,1016.65
2018-05-18T09:48:10.925Z,1016.70
2018-05-18T09:49:10.861Z,1016.66
2018-05-18T09:50:10.847Z,1016.66
2018-05-18T09:51:10.825Z,1016.69
2018-05-18T09:52:11.342Z,1016.67
2018-05-18T09:53:10.833Z,1016.71
2018-05-18T09:54:10.855Z,1016.71
2018-05-18T09:55:10.943Z,1016.71
2018-05-18T09:56:10.711Z,1016.72
2018-05-18T09:57:10.690Z,1016.72
2018-05-18T09:58:10.665Z,1016.74
2018-05-18T09:59:10.900Z,1016.76
2018-05-18T10:00:10.628Z,1016.78
2018-05-18T10:01:10.652Z,1016.73
2018-05-18T10:02:10.587Z,1016.70
2018-05-18T10:03:10.559Z,1016.75
2018-05-18T10:04:10.546Z,1016.77
2018-05-18T10:05:10.559Z,1016.78
2018-05-18T10:06:10.535Z,1016.81
2018-05-18T10:07:10.472Z,1016.81
2018-05-18T10:08:10.458Z,1016.81
2018-05-18T10:09:10.432Z,1016.84
2018-05-18T10:10:10.438Z,1016.80
2018-05-18T10:11:10.461Z,1016.84
2018-05-18T10:12:10.373Z,1016.82
2018-05-18T10:13:10.359Z,1016.80
2018-05-18T10:14:10.330Z,1016.80
2018-05-18T10:15:10.316Z,1016.82
2018-05-18T10:16:10.327Z,1016.83
2018-05-18T10:17:10.309Z,1016.84
2018-05-18T10:18:10.245Z,1016.85
2018-05-18T10:19:10.233Z,1016.87
2018-05-18T10:20:10.209Z,1016.90
2018-05-18T10:21:10.179Z,1016.92
2018-05-18T10:22:10.209Z,1016.93
2018-05-18T10:23:11.730Z,1016.90
2018-05-18T10:24:10.188Z,1016.90
2018-05-18T10:25:10.097Z,1016.91
2018-05-18T10:26:10.082Z,1016.93
2018-05-18T10:27:10.054Z,1016.93
2018-05-18T10:28:10.095Z,1016.88
2018-05-18T10:29:10.015Z,1016.92
2018-05-18T10:30:10.000Z,1016.87
2018-05-18T10:31:10.732Z,1016.87
2018-05-18T10:32:09.954Z,1016.83
2018-05-18T10:33:09.973Z,1016.85
2018-05-18T10:34:10.825Z,1016.89
2018-05-18T10:35:09.890Z,1016.91
2018-05-18T10:36:09.872Z,1016.87
2018-05-18T10:37:09.859Z,1016.91
2018-05-18T10:38:09.881Z,1016.93
2018-05-18T10:39:09.819Z,1016.90
2018-05-18T10:40:10.330Z,1016.95
2018-05-18T10:41:09.770Z,1016.98
2018-05-18T10:42:09.759Z,1016.97
2018-05-18T10:43:09.772Z,1016.90
2018-05-18T10:44:09.735Z,1016.94
2018-05-18T10:45:10.339Z,1016.95
2018-05-18T10:46:09.660Z,1016.96
2018-05-18T10:47:09.642Z,1016.93
2018-05-18T10:48:09.663Z,1016.99
2018-05-18T10:49:09.596Z,1016.98
2018-05-18T10:50:10.339Z,1016.95
2018-05-18T10:51:09.574Z,1016.94
2018-05-18T10:52:09.579Z,1016.94
2018-05-18T10:53:09.543Z,1016.93
2018-05-18T10:54:09.493Z,1016.98
2018-05-18T10:55:12.338Z,1016.97
2018-05-18T10:56:09.452Z,1016.97
2018-05-18T10:57:09.475Z,1016.98
2018-05-18T10:58:09.409Z,1016.99
2018-05-18T10:59:09.431Z,1016.98
2018-05-18T11:00:10.335Z,1016.96
2018-05-18T11:01:09.346Z,1017.00
2018-05-18T11:02:09.340Z,1016.99
2018-05-18T11:03:09.311Z,1016.99
2018-05-18T11:04:09.343Z,1017.00
2018-05-18T11:05:09.262Z,1017.02
2018-05-18T11:06:09.258Z,1017.01
2018-05-18T11:07:09.221Z,1016.97
2018-05-18T11:08:09.200Z,1017.00
2018-05-18T11:09:09.228Z,1016.99
2018-05-18T11:10:09.213Z,1016.92
2018-05-18T11:11:09.139Z,1016.95
2018-05-18T11:12:09.123Z,1016.92
2018-05-18T11:13:09.837Z,1016.86
2018-05-18T11:14:09.213Z,1016.94
2018-05-18T11:15:09.102Z,1016.92
2018-05-18T11:16:09.033Z,1016.93
2018-05-18T11:17:09.024Z,1016.92
2018-05-18T11:18:08.994Z,1016.92
2018-05-18T11:19:08.969Z,1016.96
2018-05-18T11:20:09.098Z,1016.94
2018-05-18T11:21:08.971Z,1016.93
2018-05-18T11:22:08.912Z,1016.92
2018-05-18T11:23:08.891Z,1016.95
2018-05-18T11:24:08.915Z,1016.97
2018-05-18T11:25:08.856Z,1016.97
2018-05-18T11:26:08.877Z,1016.97
2018-05-18T11:27:08.811Z,1016.93
2018-05-18T11:28:08.808Z,1016.97
2018-05-18T11:29:08.764Z,1016.97
2018-05-18T11:30:08.928Z,1016.98
2018-05-18T11:31:08.721Z,1016.98
2018-05-18T11:32:08.760Z,1017.00
2018-05-18T11:33:08.737Z,1017.02
2018-05-18T11:34:08.681Z,1017.02
2018-05-18T11:35:08.640Z,1017.02
2018-05-18T11:36:08.644Z,1017.00
2018-05-18T11:37:08.646Z,1017.03
2018-05-18T11:38:08.606Z,1017.06
2018-05-18T11:39:08.580Z,1017.04
2018-05-18T11:40:08.534Z,1017.03
2018-05-18T11:41:08.569Z,1016.95
2018-05-18T11:42:08.540Z,1017.00
2018-05-18T11:43:08.473Z,1017.00
2018-05-18T11:44:08.452Z,1017.02
2018-05-18T11:45:08.432Z,1016.98
2018-05-18T11:46:08.407Z,1017.02
2018-05-18T11:47:08.436Z,1017.08
2018-05-18T11:48:08.532Z,1017.03
2018-05-18T11:49:08.341Z,1017.05
2018-05-18T11:50:08.334Z,1017.07
2018-05-18T11:51:08.301Z,1017.07
2018-05-18T11:52:10.254Z,1017.01
2018-05-18T11:53:08.311Z,1017.04
2018-05-18T11:54:08.254Z,1017.03
2018-05-18T11:55:08.210Z,1017.03
2018-05-18T11:56:08.193Z,1017.02
2018-05-18T11:57:08.855Z,1017.05
2018-05-18T11:58:08.208Z,1017.07
2018-05-18T11:59:08.142Z,1017.08
2018-05-18T12:00:08.106Z,1017.09
2018-05-18T12:01:08.103Z,1017.07
2018-05-18T12:02:08.059Z,1017.05
2018-05-18T12:03:08.081Z,1017.07
2018-05-18T12:04:08.022Z,1017.05
2018-05-18T12:05:07.998Z,1017.07